createdAt,value
2023-05-23T00:02:23.431Z,71.06
2023-05-23T00:05:09.438Z,71.41
2023-05-23T00:07:55.153Z,71.68
2023-05-23T00:10:41.128Z,71.65
2023-05-23T00:13:27.008Z,71.67
2023-05-23T00:16:13.251Z,71.75
2023-05-23T00:18:59.383Z,71.96
2023-05-23T00:21:51.261Z,71.91
2023-05-23T00:24:37.199Z,71.10
2023-05-23T00:27:22.909Z,71.90
2023-05-23T00:30:08.648Z,71.89
2023-05-23T00:32:55.313Z,72.05
2023-05-23T00:35:44.133Z,71.24
2023-05-23T00:38:30.660Z,71.04
2023-05-23T00:41:18.494Z,70.82
2023-05-23T00:44:06.019Z,70.73
2023-05-23T00:46:54.060Z,71.18
2023-05-23T00:49:41.067Z,70.94
2023-05-23T00:52:26.847Z,70.48
2023-05-23T00:55:13.395Z,70.48
2023-05-23T00:57:59.190Z,70.89
2023-05-23T01:00:45.538Z,70.74
2023-05-23T01:03:31.476Z,70.46
2023-05-23T01:06:17.761Z,70.90
2023-05-23T01:09:03.633Z,71.01
2023-05-23T01:12:15.490Z,71.67
2023-05-23T01:15:22.026Z,71.40
2023-05-23T01:18:18.427Z,71.64
2023-05-23T01:21:09.040Z,71.51
2023-05-23T01:24:11.583Z,71.48
2023-05-23T01:27:08.706Z,71.30
2023-05-23T01:29:58.695Z,71.29
2023-05-23T01:32:45.339Z,70.88
2023-05-23T01:35:31.892Z,70.45
2023-05-23T01:38:17.906Z,70.35
2023-05-23T01:41:04.067Z,70.47
2023-05-23T01:43:49.987Z,71.17
2023-05-23T01:46:36.052Z,71.56
2023-05-23T01:49:22.287Z,72.39
2023-05-23T01:52:09.983Z,72.49
2023-05-23T01:54:57.312Z,72.60
2023-05-23T01:57:44.308Z,72.50
2023-05-23T02:00:30.028Z,72.54
2023-05-23T02:03:17.315Z,72.63
2023-05-23T02:06:03.455Z,72.93
2023-05-23T02:08:49.225Z,73.39
2023-05-23T02:11:35.760Z,72.84
2023-05-23T02:14:21.727Z,72.82
2023-05-23T02:17:07.769Z,73.32
2023-05-23T02:19:54.429Z,73.68
2023-05-23T02:22:40.408Z,73.28
2023-05-23T02:25:28.089Z,73.32
2023-05-23T02:28:13.808Z,73.49
2023-05-23T02:30:59.574Z,72.71
2023-05-23T02:33:45.216Z,73.47
2023-05-23T02:36:33.499Z,73.71
2023-05-23T02:39:19.542Z,73.87
2023-05-23T02:42:06.017Z,73.85
2023-05-23T02:44:51.834Z,73.84
2023-05-23T02:47:38.619Z,73.95
2023-05-23T02:50:24.350Z,74.42
2023-05-23T02:53:10.320Z,74.33
2023-05-23T02:55:56.457Z,74.72
2023-05-23T02:58:43.051Z,74.70
2023-05-23T03:01:28.972Z,75.13
2023-05-23T03:04:15.287Z,74.29
2023-05-23T03:07:05.438Z,74.85
2023-05-23T03:09:53.241Z,75.17
2023-05-23T03:12:39.039Z,74.65
2023-05-23T03:15:25.017Z,74.61
2023-05-23T03:18:11.386Z,74.66
2023-05-23T03:20:58.315Z,74.86
2023-05-23T03:23:43.847Z,74.54
2023-05-23T03:26:29.526Z,74.73
2023-05-23T03:29:15.781Z,74.47
2023-05-23T03:32:02.888Z,74.60
2023-05-23T03:34:48.859Z,74.62
2023-05-23T03:37:35.300Z,74.65
2023-05-23T03:40:22.075Z,74.58
2023-05-23T03:43:08.843Z,74.49
2023-05-23T03:45:58.983Z,74.49
2023-05-23T03:48:45.336Z,74.65
2023-05-23T03:51:31.733Z,74.49
2023-05-23T03:54:18.355Z,74.46
2023-05-23T03:57:04.639Z,74.37
2023-05-23T03:59:51.118Z,74.54
2023-05-23T04:02:40.184Z,75.00
2023-05-23T04:05:26.448Z,74.29
2023-05-23T04:08:13.161Z,73.30
2023-05-23T04:11:02.392Z,72.52
2023-05-23T04:13:53.438Z,71.91
2023-05-23T04:16:41.899Z,70.83
2023-05-23T04:19:28.468Z,70.42
2023-05-23T04:22:14.680Z,69.53
2023-05-23T04:25:00.599Z,68.82
2023-05-23T04:27:54.404Z,68.66
2023-05-23T04:30:40.981Z,67.88
2023-05-23T04:33:28.308Z,67.15
2023-05-23T04:36:14.086Z,66.84
2023-05-23T04:39:05.644Z,66.14
2023-05-23T04:41:54.874Z,65.63
2023-05-23T04:45:22.150Z,65.78
2023-05-23T04:48:38.803Z,65.39
2023-05-23T04:51:25.230Z,65.24
2023-05-23T04:54:15.342Z,65.28
2023-05-23T04:57:01.612Z,65.54
2023-05-23T04:59:48.216Z,65.08
2023-05-23T05:02:36.815Z,65.03
2023-05-23T05:05:22.712Z,64.73
2023-05-23T05:08:09.040Z,64.31
2023-05-23T05:10:55.852Z,63.60
2023-05-23T05:13:42.405Z,63.45
2023-05-23T05:16:27.952Z,63.04
2023-05-23T05:19:14.159Z,63.03
2023-05-23T05:22:00.369Z,62.93
2023-05-23T05:24:47.001Z,62.45
2023-05-23T05:27:32.409Z,62.44
2023-05-23T05:30:18.862Z,62.02
2023-05-23T05:33:10.236Z,61.52
2023-05-23T05:35:56.431Z,61.09
2023-05-23T05:38:42.324Z,60.80
2023-05-23T05:41:28.426Z,60.68
2023-05-23T05:44:13.679Z,60.63
2023-05-23T05:46:59.418Z,60.22
2023-05-23T05:49:44.918Z,60.54
2023-05-23T05:52:30.611Z,60.67
2023-05-23T05:55:16.071Z,60.66
2023-05-23T05:58:05.632Z,60.47
2023-05-23T06:01:05.767Z,60.67
2023-05-23T06:03:51.807Z,60.59
2023-05-23T06:06:37.979Z,60.93
2023-05-23T06:09:24.311Z,60.87
2023-05-23T06:12:10.289Z,60.95
2023-05-23T06:14:56.386Z,60.78
2023-05-23T06:17:43.038Z,60.73
2023-05-23T06:20:29.407Z,60.86
2023-05-23T06:23:18.924Z,60.87
2023-05-23T06:26:10.721Z,60.75
2023-05-23T06:28:56.314Z,60.63
2023-05-23T06:31:42.155Z,60.54
2023-05-23T06:34:28.344Z,60.12
2023-05-23T06:37:17.893Z,59.92
2023-05-23T06:40:04.853Z,59.63
2023-05-23T06:42:51.761Z,59.53
2023-05-23T06:46:12.619Z,59.88
2023-05-23T06:49:13.204Z,59.65
2023-05-23T06:52:00.897Z,59.20
2023-05-23T06:54:46.578Z,58.83
2023-05-23T06:57:32.640Z,58.65
2023-05-23T07:00:19.635Z,58.34
2023-05-23T07:03:18.600Z,58.42
2023-05-23T07:06:05.131Z,57.98
2023-05-23T07:08:50.974Z,57.27
2023-05-23T07:11:39.544Z,56.58
2023-05-23T07:14:25.814Z,56.32
2023-05-23T07:17:12.311Z,56.05
2023-05-23T07:19:58.155Z,55.91
2023-05-23T07:22:45.654Z,55.35
2023-05-23T07:25:31.277Z,55.58
2023-05-23T07:28:17.532Z,55.57
2023-05-23T07:31:03.699Z,55.63
2023-05-23T07:33:50.606Z,55.42
2023-05-23T07:36:45.738Z,55.86
2023-05-23T07:39:32.802Z,56.02
2023-05-23T07:42:19.772Z,56.14
2023-05-23T07:45:06.874Z,56.80
2023-05-23T07:47:53.627Z,56.83
2023-05-23T07:50:42.945Z,56.94
2023-05-23T07:53:29.042Z,57.33
2023-05-23T07:56:15.813Z,57.13
2023-05-23T07:59:02.423Z,56.64
2023-05-23T08:01:50.722Z,56.31
2023-05-23T08:04:40.400Z,56.76
2023-05-23T08:07:27.080Z,56.14
2023-05-23T08:10:17.490Z,55.24
2023-05-23T08:13:06.865Z,54.48
2023-05-23T08:15:57.996Z,53.88
2023-05-23T08:18:47.939Z,53.93
2023-05-23T08:21:36.326Z,53.82
2023-05-23T08:24:22.427Z,53.55
2023-05-23T08:27:08.582Z,53.19
2023-05-23T08:29:55.954Z,51.72
2023-05-23T08:32:41.917Z,50.80
2023-05-23T08:35:29.408Z,50.64
2023-05-23T08:38:15.264Z,50.37
2023-05-23T08:41:30.701Z,47.96
2023-05-23T08:44:23.075Z,47.92
2023-05-23T08:47:17.507Z,47.13
2023-05-23T08:50:14.573Z,46.59
2023-05-23T08:53:00.615Z,46.81
2023-05-23T08:55:48.862Z,46.35
2023-05-23T08:58:35.702Z,46.30
2023-05-23T09:01:23.284Z,46.46
2023-05-23T09:04:12.398Z,46.41
2023-05-23T09:07:12.109Z,45.66
2023-05-23T09:09:58.223Z,45.80
2023-05-23T09:12:43.769Z,45.33
2023-05-23T09:15:31.961Z,45.40
2023-05-23T09:18:18.573Z,45.21
2023-05-23T09:21:05.286Z,45.51
2023-05-23T09:23:53.293Z,44.46
2023-05-23T09:26:39.745Z,43.89
2023-05-23T09:29:25.733Z,44.22
2023-05-23T09:32:16.451Z,42.92
2023-05-23T09:35:04.732Z,42.77
2023-05-23T09:37:52.597Z,43.01
2023-05-23T09:40:38.034Z,42.64
2023-05-23T09:43:24.158Z,42.12
2023-05-23T09:46:11.761Z,41.80
2023-05-23T09:49:00.223Z,42.17
2023-05-23T09:52:00.866Z,41.66
2023-05-23T09:54:47.718Z,41.95
2023-05-23T09:57:38.702Z,41.86
2023-05-23T10:00:28.563Z,41.79
2023-05-23T10:03:15.218Z,41.76
2023-05-23T10:06:07.464Z,42.33
2023-05-23T10:09:04.628Z,42.18
2023-05-23T10:11:59.787Z,42.25
2023-05-23T10:14:46.514Z,42.42
2023-05-23T10:17:41.313Z,42.80
2023-05-23T10:20:31.886Z,42.47
2023-05-23T10:23:18.993Z,42.79
2023-05-23T10:26:05.346Z,42.35
2023-05-23T10:28:51.835Z,42.43
2023-05-23T10:31:38.347Z,42.28
2023-05-23T10:34:54.615Z,42.77
2023-05-23T10:37:53.348Z,42.71
2023-05-23T10:40:52.927Z,43.04
2023-05-23T10:43:54.158Z,42.49
2023-05-23T10:47:02.270Z,42.66
2023-05-23T10:49:52.403Z,42.90
2023-05-23T10:52:42.124Z,42.97
2023-05-23T10:55:32.111Z,43.16
2023-05-23T10:58:22.886Z,42.95
2023-05-23T11:01:09.749Z,43.04
2023-05-23T11:03:56.351Z,42.95
2023-05-23T11:06:44.569Z,43.28
2023-05-23T11:09:30.779Z,43.20
2023-05-23T11:12:16.388Z,43.79
2023-05-23T11:15:02.703Z,43.51
2023-05-23T11:17:52.628Z,43.27
2023-05-23T11:20:39.194Z,43.19
2023-05-23T11:23:24.871Z,42.73
2023-05-23T11:26:30.520Z,42.95
2023-05-23T11:29:16.583Z,43.33
2023-05-23T11:32:16.013Z,43.14
2023-05-23T11:35:05.230Z,43.50
2023-05-23T11:37:51.289Z,43.56
2023-05-23T11:40:38.003Z,43.22
2023-05-23T11:43:24.267Z,43.38
2023-05-23T11:46:09.696Z,43.28
2023-05-23T11:48:55.432Z,43.96
2023-05-23T11:51:40.804Z,43.69
2023-05-23T11:54:27.468Z,43.63
2023-05-23T11:57:14.072Z,43.40
2023-05-23T12:00:00.302Z,43.33
2023-05-23T12:02:47.722Z,44.03
2023-05-23T12:05:33.506Z,43.68
2023-05-23T12:08:18.877Z,43.25
2023-05-23T12:11:04.911Z,43.00
2023-05-23T12:13:55.467Z,43.22
2023-05-23T12:16:43.932Z,43.09
2023-05-23T12:19:29.934Z,42.94
2023-05-23T12:22:23.398Z,43.24
2023-05-23T12:25:10.770Z,41.96
2023-05-23T12:27:56.798Z,41.45
2023-05-23T12:30:43.105Z,41.58
2023-05-23T12:33:29.173Z,40.98
2023-05-23T12:36:22.947Z,41.09
2023-05-23T12:39:09.487Z,40.65
2023-05-23T12:41:58.298Z,40.88
2023-05-23T12:44:46.118Z,40.81
2023-05-23T12:47:31.822Z,40.64
2023-05-23T12:50:18.136Z,41.42
2023-05-23T12:53:03.851Z,41.40
2023-05-23T12:55:49.898Z,41.65
2023-05-23T12:58:35.420Z,41.90
2023-05-23T13:01:22.228Z,42.48
2023-05-23T13:04:08.115Z,42.21
2023-05-23T13:06:54.731Z,42.75
2023-05-23T13:09:40.136Z,42.66
2023-05-23T13:12:25.950Z,42.79
2023-05-23T13:15:12.017Z,43.23
2023-05-23T13:17:58.260Z,43.33
2023-05-23T13:20:44.054Z,43.61
2023-05-23T13:23:31.006Z,43.29
2023-05-23T13:26:16.586Z,43.86
2023-05-23T13:29:02.545Z,44.31
2023-05-23T13:31:48.576Z,44.41
2023-05-23T13:34:37.546Z,44.89
2023-05-23T13:37:23.196Z,44.85
2023-05-23T13:40:13.239Z,45.17
2023-05-23T13:42:59.060Z,45.73
2023-05-23T13:45:47.328Z,46.26
2023-05-23T13:48:33.187Z,46.18
2023-05-23T13:51:19.014Z,46.71
2023-05-23T13:54:06.205Z,46.85
2023-05-23T13:56:52.321Z,47.10
2023-05-23T13:59:38.146Z,47.30
2023-05-23T14:02:24.415Z,47.22
2023-05-23T14:05:10.435Z,47.79
2023-05-23T14:07:57.016Z,49.80
2023-05-23T14:10:43.110Z,51.08
2023-05-23T14:13:29.080Z,52.99
2023-05-23T14:16:15.078Z,54.08
2023-05-23T14:19:01.681Z,56.01
2023-05-23T14:21:47.601Z,56.26
2023-05-23T14:24:34.267Z,57.90
2023-05-23T14:27:19.920Z,59.18
2023-05-23T14:30:06.880Z,60.11
2023-05-23T14:32:52.832Z,61.33
2023-05-23T14:35:40.099Z,62.56
2023-05-23T14:38:27.199Z,65.09
2023-05-23T14:41:13.992Z,64.96
2023-05-23T14:43:59.353Z,65.81
2023-05-23T14:46:49.105Z,67.23
2023-05-23T14:49:42.383Z,68.04
2023-05-23T14:52:28.755Z,68.71
2023-05-23T14:55:14.167Z,70.21
2023-05-23T14:58:00.594Z,71.68
2023-05-23T15:00:48.160Z,71.47
2023-05-23T15:03:34.232Z,72.17
2023-05-23T15:06:20.252Z,72.27
2023-05-23T15:09:07.582Z,73.61
2023-05-23T15:11:54.278Z,73.83
2023-05-23T15:14:40.564Z,75.00
2023-05-23T15:17:26.894Z,75.02
2023-05-23T15:20:13.270Z,75.00
2023-05-23T15:22:58.582Z,75.58
2023-05-23T15:25:49.378Z,75.72
2023-05-23T15:28:35.765Z,76.50
2023-05-23T15:31:21.494Z,77.18
2023-05-23T15:34:07.022Z,76.97
2023-05-23T15:36:53.193Z,77.09
2023-05-23T15:39:38.748Z,77.20
2023-05-23T15:42:24.745Z,77.69
2023-05-23T15:45:11.568Z,77.69
2023-05-23T15:47:57.807Z,78.59
2023-05-23T15:50:44.225Z,79.31
2023-05-23T15:53:34.418Z,79.03
2023-05-23T15:56:23.108Z,79.50
2023-05-23T15:59:09.475Z,79.45
2023-05-23T16:01:56.230Z,79.98
2023-05-23T16:04:42.474Z,80.03
2023-05-23T16:07:28.071Z,80.39
2023-05-23T16:10:14.411Z,80.47
2023-05-23T16:13:00.058Z,80.64
2023-05-23T16:15:46.148Z,80.92
2023-05-23T16:18:31.701Z,80.82
2023-05-23T16:21:20.677Z,81.09
2023-05-23T16:24:06.707Z,81.39
2023-05-23T16:26:53.045Z,81.68
2023-05-23T16:29:38.694Z,81.96
2023-05-23T16:32:24.857Z,82.09
2023-05-23T16:35:13.797Z,81.86
2023-05-23T16:37:59.924Z,82.80
2023-05-23T16:40:45.542Z,83.49
2023-05-23T16:43:31.150Z,83.75
2023-05-23T16:46:19.035Z,83.73
2023-05-23T16:49:13.477Z,84.03
2023-05-23T16:51:59.255Z,83.42
2023-05-23T16:54:45.676Z,83.59
2023-05-23T16:57:31.493Z,83.66
2023-05-23T17:00:17.396Z,83.76
2023-05-23T17:03:02.912Z,83.75
2023-05-23T17:05:49.026Z,84.16
2023-05-23T17:08:34.623Z,84.45
2023-05-23T17:11:20.710Z,84.31
2023-05-23T17:14:06.091Z,83.92
2023-05-23T17:16:51.900Z,84.36
2023-05-23T17:19:42.517Z,84.64
2023-05-23T17:23:03.653Z,84.26
2023-05-23T17:25:49.549Z,84.46
2023-05-23T17:28:35.885Z,84.40
2023-05-23T17:31:21.562Z,84.31
2023-05-23T17:34:07.563Z,84.03
2023-05-23T17:36:52.960Z,84.37
2023-05-23T17:39:39.052Z,84.18
2023-05-23T17:42:25.094Z,84.13
2023-05-23T17:45:11.764Z,84.24
2023-05-23T17:48:15.254Z,84.11
2023-05-23T17:51:01.108Z,84.36
2023-05-23T17:53:47.064Z,84.69
2023-05-23T17:56:33.064Z,84.68
2023-05-23T17:59:18.547Z,84.77
2023-05-23T18:02:04.892Z,84.45
2023-05-23T18:04:50.787Z,84.15
2023-05-23T18:07:37.482Z,84.65
2023-05-23T18:10:24.689Z,84.01
2023-05-23T18:13:10.896Z,84.21
2023-05-23T18:15:56.290Z,84.40
2023-05-23T18:18:42.461Z,84.29
2023-05-23T18:21:28.846Z,83.91
2023-05-23T18:24:14.671Z,83.89
2023-05-23T18:27:00.812Z,84.03
2023-05-23T18:29:45.361Z,83.94
2023-05-23T18:32:31.508Z,83.79
2023-05-23T18:35:17.716Z,83.92
2023-05-23T18:38:03.248Z,83.57
2023-05-23T18:40:50.707Z,83.42
2023-05-23T18:43:36.692Z,83.50
2023-05-23T18:46:24.181Z,83.65
2023-05-23T18:49:09.748Z,83.68
2023-05-23T18:51:55.999Z,83.45
2023-05-23T18:54:42.411Z,83.14
2023-05-23T18:57:29.133Z,83.42
2023-05-23T19:00:14.911Z,83.21
2023-05-23T19:03:01.196Z,83.56
2023-05-23T19:05:47.237Z,83.72
2023-05-23T19:08:33.516Z,83.67
2023-05-23T19:11:19.010Z,83.60
2023-05-23T19:14:04.930Z,83.22
2023-05-23T19:16:51.516Z,83.20
2023-05-23T19:19:38.308Z,83.81
2023-05-23T19:22:24.305Z,83.52
2023-05-23T19:25:10.402Z,83.43
2023-05-23T19:27:55.998Z,83.45
2023-05-23T19:30:44.023Z,83.41
2023-05-23T19:33:29.589Z,83.40
2023-05-23T19:36:15.346Z,83.45
2023-05-23T19:39:01.595Z,83.42
2023-05-23T19:41:47.575Z,83.56
2023-05-23T19:44:32.836Z,83.30
2023-05-23T19:47:18.814Z,83.32
2023-05-23T19:50:07.263Z,83.36
2023-05-23T19:52:53.279Z,83.44
2023-05-23T19:55:40.609Z,83.36
2023-05-23T19:58:27.041Z,83.54
2023-05-23T20:01:12.582Z,83.54
2023-05-23T20:03:59.042Z,83.31
2023-05-23T20:06:44.942Z,83.52
2023-05-23T20:09:31.037Z,83.33
2023-05-23T20:12:16.964Z,83.24
2023-05-23T20:15:03.534Z,83.72
2023-05-23T20:17:48.991Z,84.17
2023-05-23T20:20:35.309Z,84.55
2023-05-23T20:23:20.907Z,84.37
2023-05-23T20:26:09.524Z,84.46
2023-05-23T20:28:55.941Z,84.27
2023-05-23T20:31:42.407Z,84.18
2023-05-23T20:34:28.397Z,84.29
2023-05-23T20:37:14.891Z,84.11
2023-05-23T20:40:00.663Z,83.90
2023-05-23T20:42:49.795Z,83.97
2023-05-23T20:45:35.484Z,83.90
2023-05-23T20:48:21.441Z,83.70
2023-05-23T20:51:08.135Z,83.74
2023-05-23T20:53:53.939Z,83.82
2023-05-23T20:56:39.337Z,84.12
2023-05-23T20:59:26.206Z,83.98
2023-05-23T21:02:13.227Z,84.04
2023-05-23T21:04:59.078Z,84.27
2023-05-23T21:07:44.731Z,84.29
2023-05-23T21:10:30.436Z,84.25
2023-05-23T21:13:15.846Z,84.53
2023-05-23T21:16:01.871Z,84.46
2023-05-23T21:18:47.353Z,84.42
2023-05-23T21:21:33.852Z,84.55
2023-05-23T21:24:19.612Z,84.76
2023-05-23T21:27:05.721Z,84.58
2023-05-23T21:29:51.748Z,84.60
2023-05-23T21:32:38.440Z,84.53
2023-05-23T21:35:24.389Z,84.64
2023-05-23T21:38:10.875Z,84.64
2023-05-23T21:40:56.647Z,84.52
2023-05-23T21:43:43.172Z,84.48
2023-05-23T21:46:28.855Z,84.40
2023-05-23T21:49:14.666Z,84.43
2023-05-23T21:52:03.791Z,84.52
2023-05-23T21:54:49.878Z,84.59
2023-05-23T21:57:35.566Z,84.50
2023-05-23T22:00:22.754Z,84.73
2023-05-23T22:03:08.428Z,84.79
2023-05-23T22:05:54.356Z,84.68
2023-05-23T22:08:39.828Z,84.94
2023-05-23T22:11:29.643Z,84.91
2023-05-23T22:14:15.626Z,85.32
2023-05-23T22:17:02.404Z,85.47
2023-05-23T22:19:48.606Z,85.37
2023-05-23T22:22:34.159Z,85.56
2023-05-23T22:25:19.777Z,85.63
2023-05-23T22:28:05.650Z,85.75
2023-05-23T22:30:51.118Z,85.81
2023-05-23T22:33:37.708Z,85.77
2023-05-23T22:36:23.431Z,85.84
2023-05-23T22:39:09.657Z,85.97
2023-05-23T22:41:55.184Z,86.09
2023-05-23T22:44:41.040Z,86.10
2023-05-23T22:47:29.381Z,86.21
2023-05-23T22:50:15.653Z,86.10
2023-05-23T22:53:01.089Z,86.40
2023-05-23T22:55:47.112Z,86.27
2023-05-23T22:58:32.520Z,86.31
2023-05-23T23:01:18.667Z,86.35
2023-05-23T23:04:04.220Z,86.25
2023-05-23T23:06:53.697Z,86.29
2023-05-23T23:09:39.741Z,86.13
2023-05-23T23:12:26.008Z,86.19
2023-05-23T23:15:11.827Z,86.24
2023-05-23T23:17:57.898Z,86.40
2023-05-23T23:20:44.298Z,86.51
2023-05-23T23:23:30.937Z,86.60
2023-05-23T23:26:16.671Z,86.39
2023-05-23T23:29:03.420Z,86.30
2023-05-23T23:31:49.456Z,86.61
2023-05-23T23:34:35.872Z,86.34
2023-05-23T23:37:21.324Z,86.48
2023-05-23T23:40:08.723Z,86.47
2023-05-23T23:42:54.357Z,86.57
2023-05-23T23:45:40.400Z,86.61
2023-05-23T23:48:26.354Z,86.71
2023-05-23T23:51:12.963Z,86.71
2023-05-23T23:53:58.999Z,86.71
2023-05-23T23:56:45.517Z,87.03
2023-05-23T23:59:31.388Z,87.08
